Impacts METAR Board
IDs:

KGYB - Giddings/Lee Cnty, TX, US

Updated at: 0200 UTC 15 Aug 2020
Potential Impact None Slight Moderate High
Time 14/14Z 14/15Z 14/16Z 14/17Z 14/18Z 14/19Z 14/20Z 14/21Z 14/22Z 14/23Z 15/00Z 15/01Z 15/02Z
Temp84 88 92 95 98 102 103 104 104 104 103 100 95
Dewpt75 74 71 69 67 64 64 63 63 63 64 65 72
Altim29.98 29.98 29.97 29.97 29.95 29.93 29.90 29.88 29.86 29.85 29.84 29.85 29.86
VIS10 10 10 10 10 10 10 10 10 10 10 10 10
CIG-- -- -- -- -- -- -- -- -- -- -- -- --
CoverCLRCLRCLRCLRCLRCLRCLRCLRCLRCLRCLRCLRCLR
FltCatVFRVFRVFRVFRVFRVFRVFRVFRVFRVFRVFRVFRVFR
WX--------------------------
WDir230210230230220220180180180180160170150
WSpd7 10 10 9 10 8 7 8 11 5 9 6 7
WGst-- -- -- 16 -- -- -- -- 16 -- -- -- --
Raw hourly METARs
KGYB 141355Z AUTO 23007KT 10SM CLR 29/24 A2998 RMK AO2 T02890241
KGYB 141455Z AUTO 21010KT 10SM CLR 31/23 A2998 RMK AO2 T03120232
KGYB 141555Z AUTO 23010KT 10SM CLR 33/22 A2997 RMK AO2 T03330215
KGYB 141655Z AUTO 23009G16KT 10SM CLR 35/21 A2997 RMK AO2 T03480206
KGYB 141755Z AUTO 22010KT 10SM CLR 37/20 A2995 RMK AO2 T03650195 10365 20265
KGYB 141855Z AUTO 22008KT 10SM CLR 39/18 A2993 RMK AO2 T03870180
KGYB 141955Z AUTO 18007KT 10SM CLR 39/18 A2990 RMK AO2 T03920179
KGYB 142055Z AUTO 18008KT 150V210 10SM CLR 40/17 A2988 RMK AO2 T04010170
KGYB 142155Z AUTO 18011G16KT 10SM CLR 40/17 A2986 RMK AO2 T04020172
KGYB 142255Z AUTO 18005KT 10SM CLR 40/17 A2985 RMK AO2 T04010171
KGYB 142355Z AUTO 16009KT 10SM CLR 39/18 A2984 RMK AO2 T03920179 10408 20365
KGYB 150055Z AUTO 17006KT 10SM CLR 38/19 A2985 RMK AO2 T03760185
KGYB 150155Z AUTO 15007KT 10SM CLR 35/22 A2986 RMK AO2 T03500224